createdAt,value
2023-03-21T00:18:04.126Z,79.40
2023-03-21T00:20:35.329Z,88.82
2023-03-21T00:23:03.771Z,91.97
2023-03-21T00:25:36.135Z,93.22
2023-03-21T00:28:08.231Z,98.15
2023-03-21T00:30:44.609Z,94.20
2023-03-21T00:33:22.404Z,92.03
2023-03-21T00:35:58.710Z,85.22
2023-03-21T00:38:30.959Z,85.80
2023-03-21T00:41:04.718Z,82.65
2023-03-21T00:43:35.172Z,70.70
2023-03-21T00:46:03.348Z,63.25
2023-03-21T00:48:31.408Z,57.45
2023-03-21T00:51:00.792Z,59.78
2023-03-21T00:53:28.999Z,60.95
2023-03-21T00:55:58.889Z,55.80
2023-03-21T00:58:26.626Z,54.63
2023-03-21T01:00:54.227Z,52.95
2023-03-21T01:03:26.091Z,51.17
2023-03-21T01:06:04.899Z,46.78
2023-03-21T01:08:48.461Z,44.08
2023-03-21T01:11:18.616Z,41.28
2023-03-21T01:13:53.774Z,43.95
2023-03-21T01:16:23.667Z,43.58
2023-03-21T01:18:51.249Z,44.05
2023-03-21T01:21:21.492Z,45.60
2023-03-21T01:23:50.264Z,47.45
2023-03-21T01:26:17.720Z,46.63
2023-03-21T01:28:45.835Z,48.58
2023-03-21T01:31:14.006Z,44.53
2023-03-21T01:33:43.885Z,43.85
2023-03-21T01:36:24.332Z,42.20
2023-03-21T01:38:52.948Z,45.72
2023-03-21T01:41:52.753Z,45.60
2023-03-21T01:44:23.226Z,43.20
2023-03-21T01:47:12.592Z,43.58
2023-03-21T01:49:46.544Z,41.63
2023-03-21T01:52:35.294Z,43.85
2023-03-21T01:55:07.339Z,39.58
2023-03-21T01:57:47.301Z,37.67
2023-03-21T02:00:23.024Z,36.55
2023-03-21T02:03:11.159Z,33.78
2023-03-21T02:06:03.205Z,34.75
2023-03-21T02:08:39.089Z,37.50
2023-03-21T02:11:07.829Z,35.75
2023-03-21T02:13:36.565Z,42.05
2023-03-21T02:16:08.700Z,47.00
2023-03-21T02:18:46.374Z,46.90
2023-03-21T02:21:20.669Z,43.33
2023-03-21T02:23:54.274Z,42.50
2023-03-21T02:26:42.428Z,43.47
2023-03-21T02:29:25.615Z,40.15
2023-03-21T02:32:09.329Z,41.53
2023-03-21T02:34:52.072Z,40.72
2023-03-21T02:37:36.697Z,42.72
2023-03-21T02:40:11.664Z,42.50
2023-03-21T02:42:54.770Z,39.95
2023-03-21T02:45:27.253Z,38.30
2023-03-21T02:47:57.815Z,36.88
2023-03-21T02:50:25.340Z,36.03
2023-03-21T02:52:52.733Z,31.92
2023-03-21T02:55:21.390Z,27.13
2023-03-21T02:57:49.088Z,26.30
2023-03-21T03:00:23.251Z,27.98
2023-03-21T03:03:02.645Z,33.25
2023-03-21T03:05:35.228Z,32.90
2023-03-21T03:08:52.932Z,32.77
2023-03-21T03:11:29.148Z,30.65
2023-03-21T03:16:39.185Z,30.88
2023-03-21T03:19:09.343Z,30.23
2023-03-21T03:21:43.531Z,34.28
2023-03-21T03:24:11.679Z,34.53
2023-03-21T03:26:42.620Z,33.55
2023-03-21T03:29:11.298Z,32.65
2023-03-21T03:31:40.923Z,35.63
2023-03-21T03:34:12.476Z,33.72
2023-03-21T03:36:43.729Z,36.30
2023-03-21T03:39:11.823Z,38.22
2023-03-21T03:42:04.285Z,37.55
2023-03-21T03:44:30.137Z,35.65
2023-03-21T03:46:59.507Z,34.08
2023-03-21T03:49:27.742Z,37.38
2023-03-21T03:51:55.584Z,37.00
2023-03-21T03:54:28.309Z,37.58
2023-03-21T03:56:56.955Z,35.50
2023-03-21T03:59:26.094Z,32.40
2023-03-21T04:01:53.763Z,27.92
2023-03-21T04:04:23.084Z,28.13
2023-03-21T04:09:23.507Z,28.45
2023-03-21T04:11:56.586Z,32.63
2023-03-21T04:14:25.643Z,32.47
2023-03-21T04:16:56.160Z,32.25
2023-03-21T04:19:23.596Z,33.30
2023-03-21T04:21:53.665Z,29.27
2023-03-21T04:24:21.195Z,25.33
2023-03-21T04:26:48.777Z,25.40
2023-03-21T04:29:16.222Z,24.40
2023-03-21T04:31:43.794Z,24.40
2023-03-21T04:34:12.773Z,22.83
2023-03-21T04:36:44.936Z,25.02
2023-03-21T04:39:13.306Z,24.15
2023-03-21T04:41:41.968Z,21.48
2023-03-21T04:44:09.599Z,21.75
2023-03-21T04:46:39.554Z,26.08
2023-03-21T04:49:09.907Z,25.65
2023-03-21T04:51:37.483Z,26.02
2023-03-21T04:54:06.073Z,28.13
2023-03-21T04:56:36.454Z,34.73
2023-03-21T04:59:06.742Z,33.03
2023-03-21T05:01:34.369Z,30.45
2023-03-21T05:04:02.112Z,27.23
2023-03-21T05:06:32.226Z,27.50
2023-03-21T05:09:00.301Z,26.70
2023-03-21T05:11:33.437Z,25.17
2023-03-21T05:14:01.367Z,27.13
2023-03-21T05:16:33.702Z,33.17
2023-03-21T05:19:05.859Z,35.10
2023-03-21T05:21:41.798Z,38.33
2023-03-21T05:24:12.529Z,36.78
2023-03-21T05:26:40.414Z,65.25
2023-03-21T05:29:08.080Z,68.07
2023-03-21T05:31:36.359Z,55.53
2023-03-21T05:34:03.998Z,47.88
2023-03-21T05:36:34.480Z,43.47
2023-03-21T05:39:02.107Z,40.08
2023-03-21T05:41:29.605Z,39.40
2023-03-21T05:43:57.090Z,32.88
2023-03-21T05:46:24.606Z,30.35
2023-03-21T05:48:52.424Z,29.13
2023-03-21T05:51:19.995Z,29.50
2023-03-21T05:53:47.713Z,31.92
2023-03-21T05:56:16.218Z,32.00
2023-03-21T05:58:43.734Z,32.53
2023-03-21T06:01:15.055Z,31.77
2023-03-21T06:03:42.656Z,32.80
2023-03-21T06:06:10.411Z,38.25
2023-03-21T06:08:37.968Z,32.97
2023-03-21T06:11:05.610Z,35.10
2023-03-21T06:13:33.348Z,31.23
2023-03-21T06:16:01.722Z,30.67
2023-03-21T06:18:29.391Z,30.50
2023-03-21T06:20:57.816Z,27.63
2023-03-21T06:23:25.470Z,29.50
2023-03-21T06:25:53.188Z,34.63
2023-03-21T06:28:20.638Z,37.92
2023-03-21T06:30:48.111Z,42.90
2023-03-21T06:33:15.587Z,40.72
2023-03-21T06:35:43.089Z,33.03
2023-03-21T06:38:12.316Z,28.73
2023-03-21T06:40:40.498Z,26.75
2023-03-21T06:43:08.139Z,25.40
2023-03-21T06:45:38.622Z,24.85
2023-03-21T06:48:08.817Z,31.80
2023-03-21T06:50:36.880Z,37.38
2023-03-21T06:53:04.421Z,38.92
2023-03-21T06:55:31.922Z,33.40
2023-03-21T06:57:59.435Z,33.00
2023-03-21T07:00:27.047Z,34.40
2023-03-21T07:02:54.614Z,36.22
2023-03-21T07:05:22.269Z,38.47
2023-03-21T07:07:49.692Z,41.40
2023-03-21T07:10:18.886Z,43.92
2023-03-21T07:12:46.452Z,40.17
2023-03-21T07:15:14.399Z,41.10
2023-03-21T07:17:41.953Z,41.72
2023-03-21T07:20:09.869Z,44.92
2023-03-21T07:22:37.658Z,31.60
2023-03-21T07:25:05.749Z,33.22
2023-03-21T07:27:42.152Z,34.33
2023-03-21T07:30:10.483Z,32.92
2023-03-21T07:32:38.285Z,31.17
2023-03-21T07:35:06.373Z,31.30
2023-03-21T07:37:34.566Z,32.78
2023-03-21T07:40:10.538Z,35.35
2023-03-21T07:42:38.709Z,34.17
2023-03-21T07:45:06.418Z,33.20
2023-03-21T07:47:34.313Z,41.70
2023-03-21T07:50:01.858Z,43.55
2023-03-21T07:52:32.532Z,40.50
2023-03-21T07:55:00.143Z,41.15
2023-03-21T07:57:27.964Z,44.35
2023-03-21T07:59:55.770Z,46.80
2023-03-21T08:02:23.371Z,50.95
2023-03-21T08:04:50.940Z,51.03
2023-03-21T08:07:18.475Z,46.35
2023-03-21T08:09:48.057Z,42.42
2023-03-21T08:12:15.651Z,40.13
2023-03-21T08:14:43.360Z,33.00
2023-03-21T08:17:11.382Z,37.40
2023-03-21T08:19:38.925Z,33.40
2023-03-21T08:22:07.188Z,27.90
2023-03-21T08:24:34.778Z,29.58
2023-03-21T08:27:02.888Z,27.25
2023-03-21T08:29:30.472Z,26.58
2023-03-21T08:31:58.433Z,25.70
2023-03-21T08:34:28.961Z,24.48
2023-03-21T08:36:56.536Z,25.92
2023-03-21T08:39:31.261Z,26.77
2023-03-21T08:42:02.004Z,24.50
2023-03-21T08:44:42.709Z,23.67
2023-03-21T08:47:10.960Z,23.55
2023-03-21T08:49:38.646Z,23.05
2023-03-21T08:52:06.595Z,25.30
2023-03-21T08:54:34.491Z,24.95
2023-03-21T08:57:02.079Z,24.35
2023-03-21T08:59:29.611Z,25.20
2023-03-21T09:02:19.345Z,23.05
2023-03-21T09:05:05.156Z,22.90
2023-03-21T09:07:35.143Z,21.77
2023-03-21T09:10:19.585Z,20.73
2023-03-21T09:12:54.114Z,20.85
2023-03-21T09:15:22.355Z,19.50
2023-03-21T09:17:53.103Z,19.47
2023-03-21T09:20:25.780Z,20.90
2023-03-21T09:22:53.544Z,14.75
2023-03-21T09:25:21.775Z,11.07
2023-03-21T09:28:11.904Z,11.87
2023-03-21T09:30:44.014Z,13.10
2023-03-21T09:33:29.744Z,19.30
2023-03-21T09:35:58.878Z,21.10
2023-03-21T09:38:30.720Z,21.05
2023-03-21T09:41:16.960Z,23.48
2023-03-21T09:43:50.880Z,20.52
2023-03-21T09:46:36.980Z,21.17
2023-03-21T09:49:08.185Z,18.90
2023-03-21T09:51:37.286Z,16.10
2023-03-21T09:54:07.582Z,17.17
2023-03-21T09:56:37.468Z,10.13
2023-03-21T09:59:07.036Z,8.27
2023-03-21T10:01:42.234Z,7.20
2023-03-21T10:04:12.241Z,7.82
2023-03-21T10:06:41.359Z,7.72
2023-03-21T10:11:48.847Z,8.87
2023-03-21T10:14:23.010Z,12.40
2023-03-21T10:16:51.913Z,15.68
2023-03-21T10:19:24.748Z,17.58
2023-03-21T10:22:03.897Z,17.52
2023-03-21T10:24:36.288Z,17.10
2023-03-21T10:27:04.582Z,16.88
2023-03-21T10:29:34.135Z,13.05
2023-03-21T10:32:01.851Z,35.53
2023-03-21T10:34:35.411Z,14.68
2023-03-21T10:37:03.754Z,12.40
2023-03-21T10:39:41.773Z,15.52
2023-03-21T10:42:28.310Z,14.40
2023-03-21T10:44:57.734Z,14.60
2023-03-21T10:47:29.268Z,15.93
2023-03-21T10:50:07.337Z,14.75
2023-03-21T10:52:37.536Z,14.45
2023-03-21T10:55:07.064Z,16.17
2023-03-21T10:57:34.544Z,15.60
2023-03-21T11:00:17.365Z,15.35
2023-03-21T11:02:56.542Z,19.23
2023-03-21T11:08:04.697Z,15.55
2023-03-21T11:10:36.200Z,16.90
2023-03-21T11:13:05.642Z,16.45
2023-03-21T11:15:34.221Z,18.27
2023-03-21T11:18:02.087Z,16.77
2023-03-21T11:20:31.301Z,14.70
2023-03-21T11:25:28.635Z,14.05
2023-03-21T11:27:57.545Z,15.30
2023-03-21T11:30:26.022Z,18.33
2023-03-21T11:33:00.292Z,19.73
2023-03-21T11:35:38.137Z,17.15
2023-03-21T11:38:06.657Z,13.30
2023-03-21T11:40:34.925Z,12.77
2023-03-21T11:43:03.982Z,13.60
2023-03-21T11:47:59.652Z,11.07
2023-03-21T11:50:43.263Z,10.70
2023-03-21T11:53:19.955Z,10.85
2023-03-21T11:55:50.618Z,9.13
2023-03-21T11:58:31.308Z,11.70
2023-03-21T12:01:02.912Z,11.40
2023-03-21T12:03:47.787Z,10.45
2023-03-21T12:06:20.803Z,9.48
2023-03-21T12:09:00.647Z,8.95
2023-03-21T12:11:31.028Z,9.43
2023-03-21T12:14:04.561Z,9.13
2023-03-21T12:16:41.540Z,8.40
2023-03-21T12:19:38.615Z,10.23
2023-03-21T12:22:06.507Z,23.50
2023-03-21T12:24:34.887Z,20.83
2023-03-21T12:27:11.615Z,10.80
2023-03-21T12:29:50.313Z,10.13
2023-03-21T12:32:29.969Z,9.93
2023-03-21T12:35:05.640Z,10.13
2023-03-21T12:37:42.727Z,8.57
2023-03-21T12:40:16.084Z,9.73
2023-03-21T12:43:14.548Z,8.98
2023-03-21T12:45:47.570Z,10.15
2023-03-21T12:48:41.612Z,9.38
2023-03-21T12:51:16.649Z,9.52
2023-03-21T12:54:02.643Z,10.80
2023-03-21T12:56:32.202Z,10.00
2023-03-21T12:59:09.339Z,9.63
2023-03-21T13:01:40.736Z,10.27
2023-03-21T13:04:10.040Z,9.30
2023-03-21T13:06:37.933Z,9.77
2023-03-21T13:09:05.550Z,9.73
2023-03-21T13:11:33.784Z,10.48
2023-03-21T13:14:08.735Z,8.73
2023-03-21T13:16:56.237Z,9.30
2023-03-21T13:19:27.170Z,10.13
2023-03-21T13:22:04.182Z,9.73
2023-03-21T13:24:34.810Z,9.57
2023-03-21T13:27:13.496Z,10.70
2023-03-21T13:29:50.235Z,11.00
2023-03-21T13:32:23.473Z,10.75
2023-03-21T13:34:58.320Z,9.43
2023-03-21T13:37:26.637Z,9.32
2023-03-21T13:39:54.317Z,9.75
2023-03-21T13:42:23.701Z,9.80
2023-03-21T13:44:53.821Z,8.75
2023-03-21T13:47:41.033Z,10.43
2023-03-21T13:50:24.114Z,8.32
2023-03-21T13:53:12.010Z,8.10
2023-03-21T13:55:44.604Z,8.05
2023-03-21T13:58:31.690Z,7.57
2023-03-21T14:01:26.697Z,6.70
2023-03-21T14:04:09.731Z,6.93
2023-03-21T14:12:45.570Z,7.25
2023-03-21T14:15:19.971Z,6.57
2023-03-21T14:18:01.648Z,9.52
2023-03-21T14:20:44.336Z,10.23
2023-03-21T14:23:34.274Z,9.35
2023-03-21T14:26:02.370Z,7.38
2023-03-21T14:31:45.916Z,6.97
2023-03-21T14:34:18.153Z,7.35
2023-03-21T14:36:56.954Z,7.57
2023-03-21T14:39:40.644Z,7.55
2023-03-21T14:42:09.229Z,7.82
2023-03-21T14:44:58.627Z,8.25
2023-03-21T14:47:36.811Z,8.05
2023-03-21T14:50:28.359Z,9.48
2023-03-21T14:53:05.982Z,8.13
2023-03-21T14:56:03.912Z,14.60
2023-03-21T14:58:50.933Z,9.15
2023-03-21T15:01:27.698Z,7.00
2023-03-21T15:07:00.633Z,3.30
2023-03-21T15:12:10.681Z,4.07
2023-03-21T15:14:38.554Z,5.97
2023-03-21T15:17:08.855Z,17.38
2023-03-21T15:19:43.118Z,6.38
2023-03-21T15:22:15.912Z,4.90
2023-03-21T15:24:51.793Z,7.15
2023-03-21T15:27:21.197Z,7.82
2023-03-21T15:29:51.547Z,12.02
2023-03-21T15:32:20.992Z,12.05
2023-03-21T15:34:51.736Z,7.32
2023-03-21T15:37:27.417Z,8.88
2023-03-21T15:42:40.835Z,7.28
2023-03-21T15:45:16.780Z,7.28
2023-03-21T15:48:06.715Z,7.22
2023-03-21T15:50:39.142Z,7.85
2023-03-21T15:53:09.943Z,9.23
2023-03-21T15:55:46.224Z,10.60
2023-03-21T15:58:18.192Z,9.75
2023-03-21T16:00:52.701Z,11.18
2023-03-21T16:03:26.317Z,11.80
2023-03-21T16:06:04.069Z,17.55
2023-03-21T16:08:34.918Z,25.17
2023-03-21T16:11:09.993Z,23.55
2023-03-21T16:13:38.248Z,35.55
2023-03-21T16:16:06.704Z,34.10
2023-03-21T16:18:35.124Z,31.17
2023-03-21T16:21:02.833Z,28.95
2023-03-21T16:23:31.882Z,29.30
2023-03-21T16:26:00.049Z,29.65
2023-03-21T16:28:28.405Z,31.58
2023-03-21T16:31:03.048Z,39.67
2023-03-21T16:36:31.556Z,36.30
2023-03-21T16:39:08.650Z,25.85
2023-03-21T16:44:38.486Z,23.38
2023-03-21T16:47:17.005Z,20.60
2023-03-21T16:49:45.762Z,18.48
2023-03-21T16:52:15.798Z,17.38
2023-03-21T16:54:44.982Z,15.93
2023-03-21T16:59:42.628Z,18.53
2023-03-21T17:02:14.024Z,24.92
2023-03-21T17:07:26.421Z,27.17
2023-03-21T17:12:38.910Z,23.70
2023-03-21T17:15:07.051Z,21.95
2023-03-21T17:17:35.614Z,23.23
2023-03-21T17:20:05.455Z,24.40
2023-03-21T17:22:33.801Z,29.15
2023-03-21T17:25:04.531Z,26.43
2023-03-21T17:27:32.527Z,27.98
2023-03-21T17:30:00.501Z,23.50
2023-03-21T17:32:28.967Z,18.50
2023-03-21T17:35:02.069Z,13.93
2023-03-21T17:37:30.111Z,20.13
2023-03-21T17:39:58.123Z,18.77
2023-03-21T17:42:25.806Z,11.65
2023-03-21T17:44:53.665Z,10.63
2023-03-21T17:47:25.808Z,8.63
2023-03-21T17:49:54.072Z,10.40
2023-03-21T17:52:21.995Z,8.88
2023-03-21T17:54:49.929Z,10.23
2023-03-21T17:57:18.634Z,9.27
2023-03-21T17:59:46.373Z,10.18
2023-03-21T18:02:14.240Z,10.38
2023-03-21T18:04:42.311Z,10.68
2023-03-21T18:07:14.016Z,11.65
2023-03-21T18:09:44.144Z,13.73
2023-03-21T18:12:11.747Z,12.38
2023-03-21T18:14:41.027Z,15.00
2023-03-21T18:19:38.455Z,12.15
2023-03-21T18:22:06.697Z,9.85
2023-03-21T18:24:34.276Z,7.88
2023-03-21T18:27:03.654Z,7.88
2023-03-21T18:32:20.860Z,8.18
2023-03-21T18:34:48.462Z,8.20
2023-03-21T18:37:20.807Z,9.38
2023-03-21T18:39:49.938Z,10.20
2023-03-21T18:42:20.461Z,10.98
2023-03-21T18:44:55.780Z,11.38
2023-03-21T18:47:37.103Z,8.20
2023-03-21T18:50:14.200Z,8.48
2023-03-21T18:52:45.485Z,10.65
2023-03-21T18:55:44.472Z,10.68
2023-03-21T18:58:14.558Z,11.48
2023-03-21T19:00:43.788Z,14.77
2023-03-21T19:06:00.673Z,11.50
2023-03-21T19:08:28.420Z,8.73
2023-03-21T19:10:59.643Z,8.35
2023-03-21T19:13:29.345Z,7.80
2023-03-21T19:15:57.861Z,15.55
2023-03-21T19:18:49.588Z,22.75
2023-03-21T19:21:13.339Z,16.75
2023-03-21T19:24:16.282Z,17.75
2023-03-21T19:26:28.711Z,16.08
2023-03-21T19:28:56.521Z,17.60
2023-03-21T19:31:24.967Z,16.75
2023-03-21T19:33:52.553Z,22.40
2023-03-21T19:36:22.661Z,74.53
2023-03-21T19:38:51.243Z,48.58
2023-03-21T19:41:19.416Z,38.25
2023-03-21T19:43:54.659Z,38.63
2023-03-21T19:46:25.556Z,73.25
2023-03-21T19:51:28.672Z,73.07
2023-03-21T19:53:57.873Z,92.28
2023-03-21T19:56:27.322Z,75.93
2023-03-21T19:58:55.734Z,75.82
2023-03-21T20:01:24.405Z,70.97
2023-03-21T20:03:52.602Z,63.78
2023-03-21T20:06:22.181Z,53.17
2023-03-21T20:09:27.298Z,46.45
2023-03-21T20:11:37.347Z,37.72
2023-03-21T20:14:05.734Z,55.40
2023-03-21T20:16:35.939Z,54.75
2023-03-21T20:19:09.092Z,62.97
2023-03-21T20:21:47.661Z,64.35
2023-03-21T20:24:17.853Z,60.10
2023-03-21T20:26:45.947Z,61.75
2023-03-21T20:32:01.000Z,59.30
2023-03-21T20:34:30.285Z,72.32
2023-03-21T20:39:28.635Z,64.47
2023-03-21T20:41:59.433Z,61.47
2023-03-21T20:44:57.782Z,56.40
2023-03-21T20:47:15.193Z,57.63
2023-03-21T20:49:42.834Z,55.83
2023-03-21T20:54:58.033Z,68.47
2023-03-21T20:57:28.757Z,59.70
2023-03-21T20:59:56.222Z,62.10
2023-03-21T21:02:24.198Z,102.90
2023-03-21T21:05:23.567Z,124.20
2023-03-21T21:10:12.456Z,115.05
2023-03-21T21:12:40.300Z,107.30
2023-03-21T21:15:08.517Z,82.15
2023-03-21T21:20:24.133Z,75.95
2023-03-21T21:22:59.432Z,72.28
2023-03-21T21:25:29.208Z,68.13
2023-03-21T21:27:56.798Z,65.43
2023-03-21T21:30:24.361Z,55.45
2023-03-21T21:32:51.935Z,55.92
2023-03-21T21:35:22.609Z,53.63
2023-03-21T21:37:51.761Z,51.53
2023-03-21T21:40:20.831Z,54.75
2023-03-21T21:42:48.446Z,67.00
2023-03-21T21:45:16.117Z,69.05
2023-03-21T21:47:44.356Z,62.30
2023-03-21T21:50:12.033Z,58.22
2023-03-21T21:52:39.910Z,64.35
2023-03-21T21:55:07.553Z,74.93
2023-03-21T21:57:35.034Z,72.82
2023-03-21T22:00:06.275Z,58.35
2023-03-21T22:02:33.881Z,53.50
2023-03-21T22:05:02.919Z,51.00
2023-03-21T22:07:32.372Z,53.00
2023-03-21T22:09:59.962Z,55.15
2023-03-21T22:12:27.476Z,54.45
2023-03-21T22:14:54.971Z,55.97
2023-03-21T22:17:22.460Z,55.53
2023-03-21T22:20:04.251Z,53.28
2023-03-21T22:22:33.314Z,48.33
2023-03-21T22:25:00.952Z,55.13
2023-03-21T22:27:28.478Z,71.25
2023-03-21T22:29:56.241Z,64.25
2023-03-21T22:32:23.743Z,59.30
2023-03-21T22:34:51.395Z,55.47
2023-03-21T22:37:18.827Z,48.92
2023-03-21T22:39:46.652Z,46.67
2023-03-21T22:42:14.275Z,40.88
2023-03-21T22:44:41.698Z,43.17
2023-03-21T22:47:09.966Z,43.05
2023-03-21T22:49:42.739Z,53.53
2023-03-21T22:52:11.194Z,50.90
2023-03-21T22:54:41.111Z,49.47
2023-03-21T22:57:13.801Z,47.72
2023-03-21T22:59:41.392Z,47.35
2023-03-21T23:02:09.705Z,45.95
2023-03-21T23:04:37.378Z,47.30
2023-03-21T23:07:05.046Z,43.83
2023-03-21T23:09:32.700Z,48.70
2023-03-21T23:12:00.308Z,45.30
2023-03-21T23:14:27.867Z,46.80
2023-03-21T23:17:00.283Z,47.05
2023-03-21T23:19:28.954Z,44.95
2023-03-21T23:21:56.930Z,50.88
2023-03-21T23:24:24.567Z,58.63
2023-03-21T23:26:52.158Z,56.25
2023-03-21T23:29:20.753Z,64.03
2023-03-21T23:31:48.475Z,67.53
2023-03-21T23:34:16.218Z,62.22
2023-03-21T23:36:43.674Z,66.13
2023-03-21T23:39:11.445Z,58.22
2023-03-21T23:41:38.923Z,56.72
2023-03-21T23:44:09.542Z,53.20
2023-03-21T23:46:37.141Z,54.22
2023-03-21T23:49:04.568Z,52.95
2023-03-21T23:51:32.254Z,57.78
2023-03-21T23:53:59.836Z,55.50
2023-03-21T23:56:30.039Z,60.95
2023-03-21T23:59:00.832Z,65.72
